Time;durP1;ratioP1;P1;durP2;ratioP2;P2;SDS_P1;SDS_P2;PMS_P1;PMS_P2;Temp;Humidity;BMP_temperature;BMP_pressure;BME280_temperature;BME280_humidity;BME280_pressure;Samples;Min_cycle;Max_cycle;Signal;HPM_P1;HPM_P2
2022/08/05 00:01:46;;;;;;;4.05;2.65;;;;;;;;;;4974478;28;20080;-83
2022/08/05 00:04:11;;;;;;;4.78;2.70;;;;;;;;;;4967994;28;20471;-83
2022/08/05 00:06:37;;;;;;;4.35;2.50;;;;;;;;;;4962805;28;20061;-83
2022/08/05 00:09:03;;;;;;;4.25;2.55;;;;;;;;;;4973907;28;20117;-83
2022/08/05 00:11:29;;;;;;;3.93;2.63;;;;;;;;;;4965131;28;20039;-83
2022/08/05 00:13:54;;;;;;;4.55;2.85;;;;;;;;;;4974019;28;20062;-83
2022/08/05 00:16:20;;;;;;;3.97;2.50;;;;;;;;;;4949087;28;20050;-83
2022/08/05 00:18:47;;;;;;;4.53;2.60;;;;;;;;;;4962725;28;20106;-83
2022/08/05 00:21:16;;;;;;;4.13;2.55;;;;;;;;;;4969500;28;20065;-83
2022/08/05 00:23:43;;;;;;;6.20;2.75;;;;;;;;;;4968112;28;20038;-83
2022/08/05 00:26:12;;;;;;;;;;;;;;;;;;4967012;28;20035;-83
2022/08/05 00:28:37;;;;;;;4.13;2.78;;;;;;;;;;4966376;28;20294;-83
2022/08/05 00:31:03;;;;;;;3.95;2.50;;;;;;;;;;4989657;28;20041;-83
2022/08/05 00:33:29;;;;;;;4.03;2.60;;;;;;;;;;4974087;28;20157;-83
2022/08/05 00:35:57;;;;;;;4.03;2.50;;;;;;;;;;4963639;28;20125;-83
2022/08/05 00:38:22;;;;;;;3.85;2.67;;;;;;;;;;4967765;28;20584;-83
2022/08/05 00:40:54;;;;;;;5.47;2.67;;;;;;;;;;4965617;28;20039;-84
2022/08/05 00:43:20;;;;;;;4.13;2.75;;;;;;;;;;4966451;28;20109;-83
2022/08/05 00:45:46;;;;;;;4.85;2.85;;;;;;;;;;4954097;28;20125;-83
2022/08/05 00:48:17;;;;;;;5.07;2.63;;;;;;;;;;4957786;28;20038;-83
2022/08/05 00:50:44;;;;;;;4.65;2.65;;;;;;;;;;4963134;28;20686;-84
2022/08/05 00:53:10;;;;;;;4.03;2.83;;;;;;;;;;4973329;28;20505;-84
2022/08/05 00:55:35;;;;;;;5.20;2.80;;;;;;;;;;4967038;28;20049;-84
2022/08/05 00:58:01;;;;;;;10.55;3.22;;;;;;;;;;4978662;28;20042;-83
2022/08/05 01:00:28;;;;;;;6.22;3.15;;;;;;;;;;4959229;28;20043;-82
2022/08/05 01:02:54;;;;;;;;;;;;;;;;;;4961787;28;20039;-82
2022/08/05 01:05:19;;;;;;;17.33;8.98;;;;;;;;;;4963853;28;20440;-82
2022/08/05 01:07:44;;;;;;;20.88;11.35;;;;;;;;;;4958953;28;20042;-83
2022/08/05 01:10:12;;;;;;;16.48;8.73;;;;;;;;;;4952554;28;20039;-83
2022/08/05 01:12:39;;;;;;;16.60;9.43;;;;;;;;;;4971100;28;20387;-83
2022/08/05 01:15:05;;;;;;;17.75;8.98;;;;;;;;;;4980894;28;20402;-82
2022/08/05 01:17:37;;;;;;;14.50;7.97;;;;;;;;;;4972646;28;20045;-82
2022/08/05 01:20:29;;;;;;;13.70;7.22;;;;;;;;;;4963561;28;20042;-83
2022/08/05 01:23:10;;;;;;;11.93;5.93;;;;;;;;;;4989507;28;20480;-82
2022/08/05 01:25:48;;;;;;;9.45;5.45;;;;;;;;;;4987095;28;20030;-82
2022/08/05 01:28:23;;;;;;;10.18;5.00;;;;;;;;;;4971778;28;20445;-83
2022/08/05 01:30:52;;;;;;;8.77;4.50;;;;;;;;;;4980977;28;20045;-82
2022/08/05 01:33:21;;;;;;;8.52;4.82;;;;;;;;;;4966600;28;20034;-83
2022/08/05 01:35:48;;;;;;;10.38;4.38;;;;;;;;;;4978567;28;20557;-82
2022/08/05 01:38:14;;;;;;;7.00;4.40;;;;;;;;;;4968324;28;20441;-82
2022/08/05 01:40:40;;;;;;;7.18;4.03;;;;;;;;;;4974106;28;20449;-82
2022/08/05 01:43:06;;;;;;;7.20;4.20;;;;;;;;;;4967844;28;20110;-83
2022/08/05 01:45:32;;;;;;;9.15;3.95;;;;;;;;;;4970869;28;20060;-83
2022/08/05 01:47:59;;;;;;;8.05;4.13;;;;;;;;;;4970526;28;20506;-82
2022/08/05 01:50:29;;;;;;;;;;;;;;;;;;4972012;28;20038;-83
2022/08/05 01:52:59;;;;;;;5.85;3.63;;;;;;;;;;4966267;28;19924;-83
2022/08/05 01:55:27;;;;;;;7.38;4.05;;;;;;;;;;4970702;28;20030;-83
2022/08/05 01:57:52;;;;;;;9.70;3.70;;;;;;;;;;4987933;28;20512;-83
2022/08/05 02:00:18;;;;;;;6.78;3.97;;;;;;;;;;4980444;28;20034;-83
2022/08/05 02:02:54;;;;;;;7.22;3.80;;;;;;;;;;4973213;28;20485;-83
2022/08/05 02:05:22;;;;;;;5.53;3.85;;;;;;;;;;4994917;28;20062;-83
2022/08/05 02:07:48;;;;;;;6.50;3.38;;;;;;;;;;4970167;28;20077;-83
2022/08/05 02:10:13;;;;;;;6.40;3.55;;;;;;;;;;4985378;28;20065;-82
2022/08/05 02:13:05;;;;;;;6.32;3.53;;;;;;;;;;4969931;28;20153;-83
2022/08/05 02:15:36;;;;;;;7.25;3.38;;;;;;;;;;4919987;29;20484;-83
2022/08/05 02:18:04;;;;;;;7.68;3.42;;;;;;;;;;4936260;29;20043;-83
2022/08/05 02:20:38;;;;;;;8.48;3.75;;;;;;;;;;4938254;29;20488;-83
2022/08/05 02:23:07;;;;;;;7.43;3.60;;;;;;;;;;4938081;29;20609;-83
2022/08/05 02:25:39;;;;;;;6.20;3.30;;;;;;;;;;4920781;29;20095;-83
2022/08/05 02:28:05;;;;;;;6.03;3.80;;;;;;;;;;4935999;29;20044;-83
2022/08/05 02:30:44;;;;;;;7.22;3.20;;;;;;;;;;4938693;28;20039;-83
2022/08/05 02:33:14;;;;;;;7.07;3.33;;;;;;;;;;4921907;29;20118;-83
2022/08/05 02:35:44;;;;;;;7.45;3.28;;;;;;;;;;4925345;29;20121;-82
2022/08/05 02:38:09;;;;;;;6.57;3.22;;;;;;;;;;4934374;29;20092;-82
2022/08/05 02:40:37;;;;;;;6.00;3.00;;;;;;;;;;4937829;29;20139;-82
2022/08/05 02:43:02;;;;;;;;;;;;;;;;;;4935253;29;20050;-83
2022/08/05 02:45:28;;;;;;;5.27;3.13;;;;;;;;;;4919199;29;19922;-82
2022/08/05 02:47:55;;;;;;;4.88;2.90;;;;;;;;;;4934339;29;20414;-82
2022/08/05 02:50:22;;;;;;;6.50;3.00;;;;;;;;;;4916941;29;20042;-82
2022/08/05 02:52:48;;;;;;;4.72;2.45;;;;;;;;;;4942986;28;20038;-82
2022/08/05 02:55:13;;;;;;;6.05;3.08;;;;;;;;;;4975158;28;20494;-82
2022/08/05 02:57:39;;;;;;;6.75;2.60;;;;;;;;;;4972113;28;20041;-82
2022/08/05 03:00:07;;;;;;;4.35;2.97;;;;;;;;;;4972084;28;20537;-82
2022/08/05 03:02:36;;;;;;;5.68;2.55;;;;;;;;;;4986778;28;20048;-82
2022/08/05 03:05:03;;;;;;;4.35;2.67;;;;;;;;;;4966923;28;20545;-83
2022/08/05 03:07:28;;;;;;;7.15;3.17;;;;;;;;;;4955633;28;20406;-82
2022/08/05 03:09:56;;;;;;;5.38;2.95;;;;;;;;;;4996173;28;20034;-82
2022/08/05 03:12:37;;;;;;;5.03;2.55;;;;;;;;;;4980626;28;20582;-82
2022/08/05 03:15:07;;;;;;;4.55;2.90;;;;;;;;;;4971366;28;20502;-82
2022/08/05 03:17:33;;;;;;;4.85;2.65;;;;;;;;;;4970892;28;20827;-82
2022/08/05 03:19:58;;;;;;;5.57;3.20;;;;;;;;;;4971489;28;20038;-82
2022/08/05 03:22:24;;;;;;;6.60;2.92;;;;;;;;;;4980379;28;20025;-81
2022/08/05 03:24:50;;;;;;;5.10;2.80;;;;;;;;;;4969909;28;20060;-82
2022/08/05 03:27:16;;;;;;;3.85;2.42;;;;;;;;;;4963669;28;20085;-82
2022/08/05 03:29:41;;;;;;;4.63;2.55;;;;;;;;;;4978524;28;20042;-82
2022/08/05 03:32:07;;;;;;;5.00;2.55;;;;;;;;;;4971126;28;20616;-82
2022/08/05 03:34:33;;;;;;;7.15;2.75;;;;;;;;;;4994518;28;20084;-81
2022/08/05 03:37:00;;;;;;;6.70;2.85;;;;;;;;;;4980897;28;20066;-81
2022/08/05 03:39:25;;;;;;;4.20;2.60;;;;;;;;;;4963900;28;20405;-83
2022/08/05 03:41:50;;;;;;;3.83;2.45;;;;;;;;;;4967872;28;20035;-82
2022/08/05 03:44:16;;;;;;;7.07;2.60;;;;;;;;;;4981781;28;20033;-82
2022/08/05 03:46:41;;;;;;;4.30;2.42;;;;;;;;;;4970342;28;20482;-82
2022/08/05 03:49:07;;;;;;;4.40;2.50;;;;;;;;;;4962956;28;20038;-82
2022/08/05 03:51:38;;;;;;;5.45;2.70;;;;;;;;;;4965562;28;20093;-82
2022/08/05 03:54:15;;;;;;;5.88;2.65;;;;;;;;;;4981299;28;21218;-82
2022/08/05 03:56:43;;;;;;;4.63;2.60;;;;;;;;;;4950036;28;20089;-82
2022/08/05 03:59:16;;;;;;;4.32;2.30;;;;;;;;;;4962857;28;20429;-82
2022/08/05 04:01:44;;;;;;;4.15;2.60;;;;;;;;;;4991117;28;20034;-83
2022/08/05 04:04:11;;;;;;;4.38;2.67;;;;;;;;;;4964916;28;20030;-83
2022/08/05 04:06:37;;;;;;;5.18;2.78;;;;;;;;;;4967713;28;20030;-82
2022/08/05 04:09:04;;;;;;;4.85;2.92;;;;;;;;;;4977190;28;20144;-83
2022/08/05 04:11:30;;;;;;;4.32;2.92;;;;;;;;;;4971690;28;20505;-83
2022/08/05 04:13:56;;;;;;;4.32;2.58;;;;;;;;;;4978502;28;20053;-83
2022/08/05 04:16:21;;;;;;;4.65;2.70;;;;;;;;;;4968472;28;20490;-83
2022/08/05 04:18:47;;;;;;;3.47;2.47;;;;;;;;;;4971509;28;20029;-83
2022/08/05 04:21:12;;;;;;;3.72;2.80;;;;;;;;;;4970142;28;20033;-83
2022/08/05 04:23:38;;;;;;;4.82;2.80;;;;;;;;;;4972688;28;20037;-82
2022/08/05 04:26:03;;;;;;;4.50;2.70;;;;;;;;;;4969423;28;20351;-83
2022/08/05 04:28:29;;;;;;;9.63;2.38;;;;;;;;;;4967136;28;20050;-83
2022/08/05 04:30:54;;;;;;;7.07;2.63;;;;;;;;;;4969258;28;20049;-83
2022/08/05 04:33:20;;;;;;;5.13;2.67;;;;;;;;;;4970643;28;20030;-84
2022/08/05 04:35:45;;;;;;;4.65;3.00;;;;;;;;;;4967919;28;20199;-83
2022/08/05 04:38:11;;;;;;;3.88;2.72;;;;;;;;;;4978940;28;20034;-83
2022/08/05 04:40:38;;;;;;;5.38;2.95;;;;;;;;;;4962754;28;20387;-83
2022/08/05 04:43:03;;;;;;;5.05;2.40;;;;;;;;;;4969509;28;20046;-83
2022/08/05 04:45:29;;;;;;;3.55;2.28;;;;;;;;;;4977778;28;20030;-83
2022/08/05 04:48:06;;;;;;;4.03;2.85;;;;;;;;;;4964034;28;20073;-83
2022/08/05 04:50:36;;;;;;;5.85;2.60;;;;;;;;;;4991455;28;20038;-83
2022/08/05 04:53:01;;;;;;;4.38;2.40;;;;;;;;;;4970048;28;20393;-83
2022/08/05 04:55:27;;;;;;;5.57;2.60;;;;;;;;;;4984862;28;20030;-84
2022/08/05 04:57:52;;;;;;;4.55;2.90;;;;;;;;;;4980164;28;20030;-84
2022/08/05 05:00:18;;;;;;;5.38;2.65;;;;;;;;;;4962664;28;20030;-82
2022/08/05 05:02:43;;;;;;;6.00;2.67;;;;;;;;;;4979516;28;20038;-84
2022/08/05 05:05:09;;;;;;;4.20;2.55;;;;;;;;;;4984557;28;20866;-83
2022/08/05 05:07:34;;;;;;;5.10;2.55;;;;;;;;;;4979979;28;20430;-84
2022/08/05 05:10:03;;;;;;;5.07;2.72;;;;;;;;;;4970801;28;20042;-84
2022/08/05 05:12:31;;;;;;;4.35;2.80;;;;;;;;;;4964011;28;20037;-84
2022/08/05 05:14:56;;;;;;;5.80;2.55;;;;;;;;;;4979297;28;20049;-84
2022/08/05 05:17:21;;;;;;;4.07;2.63;;;;;;;;;;4974465;28;20033;-84
2022/08/05 05:19:47;;;;;;;4.95;2.55;;;;;;;;;;4962153;28;20041;-84
2022/08/05 05:22:12;;;;;;;5.32;2.67;;;;;;;;;;4977701;28;20038;-84
2022/08/05 05:24:37;;;;;;;4.63;2.63;;;;;;;;;;4970197;28;20030;-84
2022/08/05 05:27:06;;;;;;;4.07;2.63;;;;;;;;;;4959908;28;20047;-86
2022/08/05 05:29:31;;;;;;;4.80;2.80;;;;;;;;;;4956381;28;20105;-85
2022/08/05 05:31:56;;;;;;;5.13;2.70;;;;;;;;;;4966526;28;20038;-84
2022/08/05 05:34:22;;;;;;;4.32;2.47;;;;;;;;;;4976953;28;20034;-84
2022/08/05 05:36:47;;;;;;;3.80;2.42;;;;;;;;;;4975973;28;20045;-83
2022/08/05 05:39:13;;;;;;;7.00;2.70;;;;;;;;;;4971091;28;20078;-84
2022/08/05 05:41:38;;;;;;;4.82;2.88;;;;;;;;;;4971796;28;20114;-84
2022/08/05 05:44:05;;;;;;;6.50;2.90;;;;;;;;;;4984522;28;20561;-83
2022/08/05 05:46:30;;;;;;;5.30;2.70;;;;;;;;;;4979230;28;20437;-84
2022/08/05 05:48:55;;;;;;;5.82;3.05;;;;;;;;;;4981326;28;20100;-84
2022/08/05 05:51:24;;;;;;;4.97;2.40;;;;;;;;;;4980598;28;20038;-84
2022/08/05 05:53:51;;;;;;;4.97;2.70;;;;;;;;;;4962361;28;20041;-84
2022/08/05 05:56:19;;;;;;;7.10;2.87;;;;;;;;;;4974485;28;20044;-81
2022/08/05 05:58:47;;;;;;;5.28;2.40;;;;;;;;;;4969283;28;20042;-83
2022/08/05 06:01:14;;;;;;;4.88;2.53;;;;;;;;;;4967361;28;20030;-84
2022/08/05 06:03:40;;;;;;;5.05;2.70;;;;;;;;;;4973221;28;20034;-84
2022/08/05 06:06:05;;;;;;;6.32;3.40;;;;;;;;;;4983695;28;20034;-84
2022/08/05 06:08:31;;;;;;;6.07;2.95;;;;;;;;;;4980712;28;20030;-84
2022/08/05 06:10:57;;;;;;;4.57;2.70;;;;;;;;;;4974732;28;20038;-81
2022/08/05 06:13:22;;;;;;;5.07;3.00;;;;;;;;;;4969415;28;20039;-83
2022/08/05 06:15:47;;;;;;;6.95;3.00;;;;;;;;;;4971068;28;20046;-84
2022/08/05 06:18:13;;;;;;;3.72;2.50;;;;;;;;;;4973101;28;20092;-83
2022/08/05 06:20:38;;;;;;;5.60;2.75;;;;;;;;;;4970502;28;20039;-85
2022/08/05 06:23:03;;;;;;;4.70;2.20;;;;;;;;;;4981012;28;20133;-85
2022/08/05 06:25:29;;;;;;;3.53;2.00;;;;;;;;;;4957782;28;20450;-84
2022/08/05 06:27:57;;;;;;;5.50;2.20;;;;;;;;;;4977517;28;20066;-84
2022/08/05 06:30:25;;;;;;;4.95;2.00;;;;;;;;;;4970627;28;20034;-83
2022/08/05 06:32:51;;;;;;;5.43;2.22;;;;;;;;;;4970291;28;20034;-84
2022/08/05 06:35:17;;;;;;;3.30;1.85;;;;;;;;;;4967846;28;20520;-84
2022/08/05 06:37:43;;;;;;;3.13;2.03;;;;;;;;;;4974658;28;20038;-84
2022/08/05 06:40:08;;;;;;;3.33;1.92;;;;;;;;;;4967830;28;20048;-83
2022/08/05 06:42:34;;;;;;;3.70;1.80;;;;;;;;;;4969698;28;20473;-83
2022/08/05 06:44:59;;;;;;;4.85;2.17;;;;;;;;;;4964001;28;20038;-83
2022/08/05 06:47:24;;;;;;;5.10;1.80;;;;;;;;;;4960125;28;20767;-82
2022/08/05 06:49:50;;;;;;;3.47;1.60;;;;;;;;;;4961299;28;20053;-84
2022/08/05 06:52:15;;;;;;;3.55;1.70;;;;;;;;;;4965833;28;20034;-84
2022/08/05 06:54:41;;;;;;;3.70;1.80;;;;;;;;;;4980182;28;20061;-85
2022/08/05 06:57:06;;;;;;;3.13;1.52;;;;;;;;;;4969956;28;20041;-83
2022/08/05 06:59:32;;;;;;;3.03;1.70;;;;;;;;;;4979600;28;20038;-83
2022/08/05 07:01:57;;;;;;;5.75;1.80;;;;;;;;;;4972090;28;20038;-82
2022/08/05 07:04:22;;;;;;;5.63;1.98;;;;;;;;;;4978069;28;20031;-82
2022/08/05 07:06:48;;;;;;;4.25;1.80;;;;;;;;;;4970111;28;20038;-83
2022/08/05 07:09:13;;;;;;;4.95;1.70;;;;;;;;;;4968859;28;20409;-82
2022/08/05 07:11:38;;;;;;;2.97;1.70;;;;;;;;;;4984308;28;20061;-82
2022/08/05 07:17:08;;;;;;;3.25;1.50;;;;;;;;;;4983484;28;20053;-82
2022/08/05 07:19:34;;;;;;;3.70;1.88;;;;;;;;;;4916898;29;20047;-84
2022/08/05 07:21:59;;;;;;;4.95;1.92;;;;;;;;;;4902599;29;20411;-81
2022/08/05 07:24:25;;;;;;;3.67;2.00;;;;;;;;;;4920119;29;20410;-82
2022/08/05 07:26:51;;;;;;;8.45;1.83;;;;;;;;;;4934967;29;20499;-81
2022/08/05 07:29:16;;;;;;;3.53;1.60;;;;;;;;;;4927121;29;20515;-83
2022/08/05 07:31:42;;;;;;;3.45;1.80;;;;;;;;;;4926345;29;20036;-82
2022/08/05 07:34:07;;;;;;;3.97;1.67;;;;;;;;;;4925938;29;20076;-82
2022/08/05 07:36:33;;;;;;;3.70;1.80;;;;;;;;;;4910658;29;20127;-82
2022/08/05 07:39:00;;;;;;;4.00;1.80;;;;;;;;;;4926608;29;20053;-81
2022/08/05 07:41:25;;;;;;;4.25;2.03;;;;;;;;;;4908947;29;20037;-81
2022/08/05 07:43:51;;;;;;;4.72;2.20;;;;;;;;;;4922126;29;20050;-81
2022/08/05 07:46:17;;;;;;;4.18;2.20;;;;;;;;;;4910021;29;20467;-81
2022/08/05 07:48:44;;;;;;;4.25;2.00;;;;;;;;;;4918308;29;20045;-82
2022/08/05 07:51:09;;;;;;;4.35;1.90;;;;;;;;;;4907388;29;20031;-81
2022/08/05 07:53:37;;;;;;;6.45;2.38;;;;;;;;;;4920252;29;20046;-81
2022/08/05 07:56:03;;;;;;;4.55;2.13;;;;;;;;;;4937359;28;20037;-81
2022/08/05 07:58:29;;;;;;;6.57;2.10;;;;;;;;;;4966762;28;20524;-81
2022/08/05 08:00:54;;;;;;;4.60;1.77;;;;;;;;;;4960566;28;20038;-82
2022/08/05 08:03:19;;;;;;;3.72;1.98;;;;;;;;;;4967193;28;20033;-81
2022/08/05 08:05:45;;;;;;;10.40;2.40;;;;;;;;;;4968639;28;20406;-82
2022/08/05 08:08:10;;;;;;;5.13;2.15;;;;;;;;;;4978762;28;20042;-82
2022/08/05 08:10:36;;;;;;;4.03;1.95;;;;;;;;;;4969364;28;20045;-82
2022/08/05 08:13:02;;;;;;;4.65;2.22;;;;;;;;;;4976070;28;20151;-82
2022/08/05 08:15:27;;;;;;;5.38;2.10;;;;;;;;;;4968352;28;20045;-83
2022/08/05 08:17:52;;;;;;;4.10;2.20;;;;;;;;;;4970179;28;20056;-83
2022/08/05 08:20:18;;;;;;;4.78;2.35;;;;;;;;;;4963473;28;20041;-81
2022/08/05 08:22:50;;;;;;;3.50;1.90;;;;;;;;;;4967842;28;20030;-81
2022/08/05 08:25:17;;;;;;;3.92;2.10;;;;;;;;;;4975976;28;20026;-82
2022/08/05 08:27:43;;;;;;;4.53;2.00;;;;;;;;;;4962764;28;20534;-82
2022/08/05 08:30:10;;;;;;;3.42;1.73;;;;;;;;;;4959554;28;20042;-82
2022/08/05 08:32:35;;;;;;;;;;;;;;;;;;4961778;28;20560;-82
2022/08/05 08:35:01;;;;;;;6.50;1.83;;;;;;;;;;4975602;28;20129;-82
2022/08/05 08:37:26;;;;;;;5.10;2.25;;;;;;;;;;4966664;28;20096;-82
2022/08/05 08:39:51;;;;;;;4.20;2.03;;;;;;;;;;4977868;28;20624;-82
2022/08/05 08:42:17;;;;;;;5.72;1.90;;;;;;;;;;4959168;28;20038;-82
2022/08/05 08:44:43;;;;;;;3.83;2.17;;;;;;;;;;4975964;28;20046;-82
2022/08/05 08:47:09;;;;;;;4.80;2.08;;;;;;;;;;4966632;28;20080;-83
2022/08/05 08:49:35;;;;;;;4.22;1.90;;;;;;;;;;4976187;28;20034;-82
2022/08/05 08:52:07;;;;;;;4.07;2.00;;;;;;;;;;4969347;28;20027;-81
2022/08/05 08:54:34;;;;;;;3.33;1.73;;;;;;;;;;4967756;28;20042;-83
2022/08/05 08:57:00;;;;;;;6.82;2.28;;;;;;;;;;4977522;28;20033;-81
2022/08/05 08:59:25;;;;;;;3.67;2.03;;;;;;;;;;4968564;28;20390;-82
2022/08/05 09:01:54;;;;;;;5.03;2.03;;;;;;;;;;4962344;28;20041;-82
2022/08/05 09:04:19;;;;;;;4.05;1.65;;;;;;;;;;4968055;28;20092;-83
2022/08/05 09:06:44;;;;;;;4.90;1.95;;;;;;;;;;4977127;28;20486;-82
2022/08/05 09:09:10;;;;;;;4.03;2.00;;;;;;;;;;4963743;28;20066;-82
2022/08/05 09:11:36;;;;;;;4.35;2.28;;;;;;;;;;4968383;28;20034;-81
2022/08/05 09:14:02;;;;;;;3.65;2.03;;;;;;;;;;4981777;28;20046;-81
2022/08/05 09:16:27;;;;;;;7.93;2.30;;;;;;;;;;4967340;28;20042;-82
2022/08/05 09:18:52;;;;;;;4.10;2.00;;;;;;;;;;4972479;28;20030;-82
2022/08/05 09:21:18;;;;;;;3.78;1.95;;;;;;;;;;4961421;28;20132;-83
2022/08/05 09:23:45;;;;;;;2.95;1.67;;;;;;;;;;4975529;28;20371;-82
2022/08/05 09:26:16;;;;;;;3.55;1.70;;;;;;;;;;4969627;28;20030;-83
2022/08/05 09:28:42;;;;;;;3.45;1.60;;;;;;;;;;4972632;28;20045;-82
2022/08/05 09:31:09;;;;;;;4.53;1.40;;;;;;;;;;4977841;28;20497;-82
2022/08/05 09:33:51;;;;;;;4.93;1.60;;;;;;;;;;4970686;28;20115;-82
2022/08/05 09:36:17;;;;;;;3.30;1.60;;;;;;;;;;4980256;28;20038;-82
2022/08/05 09:39:00;;;;;;;3.90;1.50;;;;;;;;;;4981369;28;20054;-83
2022/08/05 09:41:26;;;;;;;3.97;1.80;;;;;;;;;;4964165;28;20045;-82
2022/08/05 09:43:51;;;;;;;3.75;1.65;;;;;;;;;;4982922;28;20038;-81
2022/08/05 09:46:32;;;;;;;4.13;1.92;;;;;;;;;;4967932;28;20515;-82
2022/08/05 09:49:03;;;;;;;3.33;1.52;;;;;;;;;;4977727;28;20494;-82
2022/08/05 09:51:33;;;;;;;4.15;1.50;;;;;;;;;;4972415;28;20207;-82
2022/08/05 09:53:59;;;;;;;4.05;1.60;;;;;;;;;;4970055;28;20053;-82
2022/08/05 09:56:27;;;;;;;3.45;1.70;;;;;;;;;;4969473;28;20037;-81
2022/08/05 09:59:05;;;;;;;4.85;1.60;;;;;;;;;;4971980;28;20049;-83
2022/08/05 10:01:35;;;;;;;4.10;1.67;;;;;;;;;;4993084;28;20031;-82
2022/08/05 10:04:18;;;;;;;3.45;1.60;;;;;;;;;;4981526;28;21400;-81
2022/08/05 10:06:56;;;;;;;2.78;1.55;;;;;;;;;;4970853;28;20057;-80
2022/08/05 10:09:21;;;;;;;3.08;1.50;;;;;;;;;;4954688;28;20038;-82
2022/08/05 10:11:47;;;;;;;3.55;1.70;;;;;;;;;;4971531;28;20049;-80
2022/08/05 10:14:20;;;;;;;4.32;1.75;;;;;;;;;;4967320;28;20104;-81
2022/08/05 10:16:45;;;;;;;4.00;1.50;;;;;;;;;;4979286;28;20065;-81
2022/08/05 10:19:12;;;;;;;2.80;1.40;;;;;;;;;;4973488;28;20457;-81
2022/08/05 10:21:38;;;;;;;3.58;1.50;;;;;;;;;;4969163;28;20041;-82
2022/08/05 10:24:03;;;;;;;4.15;1.60;;;;;;;;;;4971990;28;21488;-82
2022/08/05 10:26:29;;;;;;;4.70;1.75;;;;;;;;;;4968814;28;20420;-81
2022/08/05 10:28:55;;;;;;;3.42;1.48;;;;;;;;;;4971398;28;20045;-81
2022/08/05 10:31:20;;;;;;;6.03;1.85;;;;;;;;;;4972063;28;20034;-81
2022/08/05 10:33:46;;;;;;;3.58;1.65;;;;;;;;;;4964835;28;20120;-81
2022/08/05 10:36:11;;;;;;;3.67;1.80;;;;;;;;;;4966321;28;20125;-82
2022/08/05 10:38:38;;;;;;;4.65;2.08;;;;;;;;;;4983792;28;20560;-82
2022/08/05 10:41:30;;;;;;;4.93;1.88;;;;;;;;;;4962505;28;20038;-82
2022/08/05 10:44:03;;;;;;;4.15;1.85;;;;;;;;;;4973072;28;20120;-81
2022/08/05 10:46:49;;;;;;;4.18;2.28;;;;;;;;;;4991426;28;20573;-81
2022/08/05 10:49:15;;;;;;;5.13;2.10;;;;;;;;;;4962324;28;20038;-84
2022/08/05 10:51:43;;;;;;;3.72;2.15;;;;;;;;;;4978236;28;20049;-85
2022/08/05 10:54:08;;;;;;;3.45;2.13;;;;;;;;;;4968551;28;20034;-84
2022/08/05 10:56:51;;;;;;;3.38;1.95;;;;;;;;;;4968485;28;20042;-84
2022/08/05 10:59:18;;;;;;;4.32;2.03;;;;;;;;;;4962307;28;20113;-84
2022/08/05 11:01:44;;;;;;;5.15;2.55;;;;;;;;;;4959921;28;20064;-85
2022/08/05 11:04:13;;;;;;;5.07;2.13;;;;;;;;;;4973773;28;20495;-84
2022/08/05 11:06:59;;;;;;;3.65;1.80;;;;;;;;;;4986438;28;20143;-85
2022/08/05 11:09:45;;;;;;;3.03;1.70;;;;;;;;;;4980501;28;20068;-84
2022/08/05 11:12:23;;;;;;;3.15;1.73;;;;;;;;;;4981064;28;20030;-85
2022/08/05 11:15:05;;;;;;;4.30;2.00;;;;;;;;;;4995957;28;20145;-84
2022/08/05 11:17:33;;;;;;;6.60;1.70;;;;;;;;;;4976720;28;20030;-84
2022/08/05 11:19:59;;;;;;;2.55;1.40;;;;;;;;;;4975375;28;20469;-85
2022/08/05 11:22:47;;;;;;;3.33;1.43;;;;;;;;;;4995114;28;20041;-85
2022/08/05 11:25:37;;;;;;;3.80;1.60;;;;;;;;;;4970336;28;20034;-85
2022/08/05 11:28:11;;;;;;;5.95;2.53;;;;;;;;;;4970428;28;20581;-84
2022/08/05 11:30:55;;;;;;;4.45;2.65;;;;;;;;;;4995984;28;20042;-85
2022/08/05 11:33:50;;;;;;;5.35;2.78;;;;;;;;;;4986613;28;20381;-85
2022/08/05 11:36:40;;;;;;;8.50;4.20;;;;;;;;;;4975606;28;20041;-84
2022/08/05 11:39:06;;;;;;;12.38;7.80;;;;;;;;;;4976840;28;20040;-84
2022/08/05 11:41:34;;;;;;;10.97;6.83;;;;;;;;;;4974606;28;20378;-84
2022/08/05 11:44:14;;;;;;;11.35;6.70;;;;;;;;;;4969747;28;20073;-84
2022/08/05 11:46:52;;;;;;;10.40;6.07;;;;;;;;;;4966314;28;20104;-84
2022/08/05 11:49:21;;;;;;;9.38;5.20;;;;;;;;;;4985610;28;20130;-84
2022/08/05 11:51:49;;;;;;;8.85;5.10;;;;;;;;;;4966040;28;20045;-84
2022/08/05 11:54:24;;;;;;;8.43;4.53;;;;;;;;;;4994612;28;20030;-83
2022/08/05 11:56:51;;;;;;;6.30;3.60;;;;;;;;;;4985742;28;20429;-84
2022/08/05 11:59:25;;;;;;;5.90;3.38;;;;;;;;;;4978906;28;20030;-84
2022/08/05 12:02:07;;;;;;;6.28;3.33;;;;;;;;;;4970858;28;20514;-83
2022/08/05 12:04:38;;;;;;;6.60;3.17;;;;;;;;;;4979077;28;20034;-84
2022/08/05 12:07:05;;;;;;;4.07;2.08;;;;;;;;;;4992270;28;20038;-84
2022/08/05 12:09:35;;;;;;;2.92;1.60;;;;;;;;;;4970364;28;20038;-83
2022/08/05 12:12:01;;;;;;;5.15;1.85;;;;;;;;;;4957307;28;20030;-85
2022/08/05 12:14:41;;;;;;;3.83;1.70;;;;;;;;;;4963489;28;20422;-84
2022/08/05 12:17:10;;;;;;;5.22;2.28;;;;;;;;;;4974195;28;21093;-84
2022/08/05 12:19:47;;;;;;;4.07;1.90;;;;;;;;;;4973923;28;20383;-83
2022/08/05 12:22:17;;;;;;;2.88;1.40;;;;;;;;;;4962743;28;20058;-84
2022/08/05 12:24:50;;;;;;;3.95;1.67;;;;;;;;;;4957385;28;20042;-83
2022/08/05 12:27:21;;;;;;;3.28;1.38;;;;;;;;;;4962726;28;20123;-84
2022/08/05 12:30:06;;;;;;;2.17;1.08;;;;;;;;;;4982106;28;20124;-84
2022/08/05 12:32:34;;;;;;;4.55;1.20;;;;;;;;;;4965552;28;20045;-84
2022/08/05 12:35:03;;;;;;;2.17;1.10;;;;;;;;;;4965437;28;20109;-85
2022/08/05 12:37:29;;;;;;;2.85;0.90;;;;;;;;;;4968032;28;20117;-84
2022/08/05 12:39:56;;;;;;;2.83;1.00;;;;;;;;;;4960350;28;20355;-84
2022/08/05 12:42:21;;;;;;;2.85;1.15;;;;;;;;;;4965467;28;20041;-84
2022/08/05 12:44:47;;;;;;;2.33;1.00;;;;;;;;;;4963452;28;20042;-85
2022/08/05 12:47:13;;;;;;;2.25;1.05;;;;;;;;;;4966098;28;20041;-84
2022/08/05 12:49:47;;;;;;;2.55;1.10;;;;;;;;;;4982297;28;20041;-84
2022/08/05 12:52:15;;;;;;;2.42;1.23;;;;;;;;;;4964858;28;20407;-85
2022/08/05 12:54:42;;;;;;;2.30;1.00;;;;;;;;;;4963793;28;20517;-85
2022/08/05 12:57:09;;;;;;;2.63;1.15;;;;;;;;;;4992601;28;20039;-84
2022/08/05 12:59:47;;;;;;;;;;;;;;;;;;4970566;28;20035;-84
2022/08/05 13:02:18;;;;;;;2.88;1.30;;;;;;;;;;4981401;28;20309;-85
2022/08/05 13:04:45;;;;;;;3.28;1.40;;;;;;;;;;4970039;28;20048;-86
2022/08/05 13:07:18;;;;;;;3.38;1.30;;;;;;;;;;4962302;28;20126;-86
2022/08/05 13:09:54;;;;;;;2.47;1.10;;;;;;;;;;4960766;28;20035;-83
2022/08/05 13:12:23;;;;;;;3.00;1.42;;;;;;;;;;4992398;28;20438;-85
2022/08/05 13:14:55;;;;;;;2.80;1.40;;;;;;;;;;4969447;28;20540;-83
2022/08/05 13:17:23;;;;;;;2.92;1.30;;;;;;;;;;4963842;28;20049;-86
2022/08/05 13:20:00;;;;;;;;;;;;;;;;;;4968625;28;20078;-86
2022/08/05 13:22:26;;;;;;;4.63;1.40;;;;;;;;;;4969613;28;19918;-86
2022/08/05 13:24:52;;;;;;;4.72;1.33;;;;;;;;;;4962385;28;20406;-86
2022/08/05 13:27:50;;;;;;;2.55;1.30;;;;;;;;;;4984861;28;20146;-86
2022/08/05 13:30:18;;;;;;;2.90;1.33;;;;;;;;;;4961819;28;20121;-86
2022/08/05 13:32:47;;;;;;;3.40;1.70;;;;;;;;;;4967268;28;20038;-86
2022/08/05 13:35:14;;;;;;;3.42;1.30;;;;;;;;;;4969837;28;20045;-87
2022/08/05 13:37:40;;;;;;;3.25;1.02;;;;;;;;;;4961536;28;20045;-86
2022/08/05 13:40:07;;;;;;;3.33;1.58;;;;;;;;;;4970806;28;20098;-86
2022/08/05 13:42:32;;;;;;;4.45;1.50;;;;;;;;;;4962286;28;20027;-87
2022/08/05 13:44:59;;;;;;;2.80;1.33;;;;;;;;;;4978159;28;20038;-84
2022/08/05 13:47:24;;;;;;;4.82;1.60;;;;;;;;;;4962267;28;20178;-87
2022/08/05 13:49:51;;;;;;;3.53;1.52;;;;;;;;;;4968987;28;20071;-86
2022/08/05 13:52:22;;;;;;;6.15;1.73;;;;;;;;;;4978938;28;20097;-86
2022/08/05 13:54:48;;;;;;;3.33;1.48;;;;;;;;;;4951256;28;20046;-87
2022/08/05 13:57:14;;;;;;;3.10;1.40;;;;;;;;;;4965067;28;20552;-87
2022/08/05 13:59:41;;;;;;;4.38;1.40;;;;;;;;;;4969410;28;20110;-86
2022/08/05 14:02:10;;;;;;;5.43;1.45;;;;;;;;;;4961972;28;20046;-86
2022/08/05 14:07:52;;;;;;;3.92;1.30;;;;;;;;;;4988100;28;20065;-87
2022/08/05 14:10:21;;;;;;;3.65;1.20;;;;;;;;;;4952097;28;20097;-88
2022/08/05 14:12:47;;;;;;;2.45;1.20;;;;;;;;;;4968596;28;20030;-87
2022/08/05 14:15:12;;;;;;;2.60;1.20;;;;;;;;;;4968147;28;20034;-87
2022/08/05 14:17:38;;;;;;;2.50;1.23;;;;;;;;;;4968213;28;20036;-87
2022/08/05 14:20:05;;;;;;;2.90;1.20;;;;;;;;;;4962325;28;20038;-87
2022/08/05 14:22:30;;;;;;;2.17;1.20;;;;;;;;;;4971191;28;20495;-86
2022/08/05 14:24:56;;;;;;;2.40;1.20;;;;;;;;;;4966750;28;20033;-81
2022/08/05 14:27:24;;;;;;;6.00;1.63;;;;;;;;;;4963557;28;20057;-88
2022/08/05 14:29:49;;;;;;;4.38;1.40;;;;;;;;;;4962722;28;20042;-88
2022/08/05 14:32:15;;;;;;;2.40;1.30;;;;;;;;;;4973023;28;20568;-87
2022/08/05 14:34:40;;;;;;;2.80;1.38;;;;;;;;;;4979134;28;20269;-85
2022/08/05 14:37:05;;;;;;;3.20;1.40;;;;;;;;;;4985274;28;20141;-82
2022/08/05 14:39:32;;;;;;;4.15;1.40;;;;;;;;;;4964199;28;20037;-82
2022/08/05 14:42:00;;;;;;;3.00;1.43;;;;;;;;;;4978008;28;20153;-83
2022/08/05 14:44:26;;;;;;;3.92;1.73;;;;;;;;;;4963968;28;20065;-84
2022/08/05 14:46:51;;;;;;;3.25;1.40;;;;;;;;;;4978862;28;20125;-83
2022/08/05 14:49:16;;;;;;;3.55;1.70;;;;;;;;;;4965828;28;20470;-83
2022/08/05 14:51:42;;;;;;;5.53;2.30;;;;;;;;;;4970618;28;20038;-85
2022/08/05 14:54:08;;;;;;;6.85;2.28;;;;;;;;;;4971465;28;20393;-83
2022/08/05 14:56:34;;;;;;;5.90;2.50;;;;;;;;;;4964346;28;20046;-83
2022/08/05 14:59:00;;;;;;;4.47;2.20;;;;;;;;;;4980752;28;20089;-84